Jona — CQFI — position and weather

sailwx.info

Track history (hours):
 
Tides and Currents Weather Stations Pressure Air Temp Water Temp Dewpoint Dewpoint Depression Visibility Wind Speed Wind Dir Waves Ship Positions

Jona

Last reported at 2018-Apr-21 16:59 UTC. Time now 2018-Apr-21 17:10 UTC.
Position N 41°18' E 002°11'.

Length 190 m; draft 9.5 m.

Type: Ship (hazmat cat A). MMSI: 255805610.

Date/timePositionNaut miles runAvg speedWind from/ knotsBaromVisibWave heightAir tempDewpointWater temp
2018-Apr-21 16:59N 41°18' E 002°11'0 0.0
2018-Apr-21 16:26N 41°18' E 002°11'0 0.0
2018-Apr-21 14:28N 41°18' E 002°11'0 0.0
2018-Apr-21 13:55N 41°18' E 002°11'0 0.1
2018-Apr-21 13:13N 41°18' E 002°11'0 1.5
2018-Apr-21 13:01N 41°18' E 002°11'0 1.0
2018-Apr-21 12:30N 41°19' E 002°12'5 9.5
2018-Apr-21 12:00N 41°20' E 002°18'25113.4
2018-Apr-20 17:18N 43°07' E 007°24'6112.9
2018-Apr-20 12:35N 43°44' E 008°31'213.3
2018-Apr-20 12:24N 43°46' E 008°34'513.4
2018-Apr-20 12:00N 43°50' E 008°39'713.3
2018-Apr-20 11:30N 43°55' E 008°45'713.3
2018-Apr-20 11:00N 43°59' E 008°51'813.4
2018-Apr-20 10:27N 44°07' E 008°53'613.4
2018-Apr-20 10:00N 44°13' E 008°55'813.9
2018-Apr-20 09:28N 44°20' E 008°58'4 8.6
2018-Apr-20 09:00N 44°24' E 008°56'1 2.3
2018-Apr-20 08:30N 44°24' E 008°55'0 0.0
2018-Apr-20 08:00N 44°24' E 008°55'0 0.0
2018-Apr-20 07:27N 44°24' E 008°55'0 0.0
2018-Apr-20 07:00N 44°24' E 008°55'0 0.0
2018-Apr-20 06:26N 44°24' E 008°55'0 0.0
2018-Apr-20 05:56N 44°24' E 008°55'0 0.0
2018-Apr-20 05:29N 44°24' E 008°55'0 0.0
2018-Apr-20 04:50N 44°24' E 008°55'0 0.0
2018-Apr-20 04:29N 44°24' E 008°55'0 0.0
2018-Apr-20 03:55N 44°24' E 008°55'0 0.0
2018-Apr-20 03:25N 44°24' E 008°55'0 0.0
2018-Apr-20 02:58N 44°24' E 008°55'0 0.0
2018-Apr-20 02:28N 44°24' E 008°55'0 0.0
2018-Apr-20 02:00N 44°24' E 008°55'0 0.0
2018-Apr-19 22:35N 44°24' E 008°55'0 0.0
2018-Apr-19 22:29N 44°24' E 008°55'0 0.0
2018-Apr-19 21:59N 44°24' E 008°55'0 0.0
2018-Apr-19 21:29N 44°24' E 008°55'0 0.0
2018-Apr-19 20:58N 44°24' E 008°55'0 0.0
2018-Apr-19 20:28N 44°24' E 008°55'0 0.0
2018-Apr-19 19:58N 44°24' E 008°55'0 0.0
2018-Apr-19 19:28N 44°24' E 008°55'0 0.0
2018-Apr-19 18:57N 44°24' E 008°55'0 0.0
2018-Apr-19 18:21N 44°24' E 008°55'0 0.0
2018-Apr-19 18:00N 44°24' E 008°55'0 0.0
2018-Apr-19 17:27N 44°24' E 008°55'0 0.0
2018-Apr-19 16:57N 44°24' E 008°55'0 0.0
2018-Apr-19 16:26N 44°24' E 008°55'0 0.0
2018-Apr-19 15:59N 44°24' E 008°55'0 0.0
2018-Apr-19 15:29N 44°24' E 008°55'0 0.0
2018-Apr-19 14:59N 44°24' E 008°55'0 0.0
2018-Apr-19 14:28N 44°24' E 008°55'0 0.0
2018-Apr-19 13:55N 44°24' E 008°55'0 0.0
2018-Apr-19 13:25N 44°24' E 008°55'0 0.0
2018-Apr-19 12:58N 44°24' E 008°55'0 0.0
2018-Apr-19 12:28N 44°24' E 008°55'0 0.0
2018-Apr-19 11:55N 44°24' E 008°55'1 2.0
2018-Apr-19 11:31N 44°24' E 008°56'2 4.6
2018-Apr-19 11:01N 44°22' E 008°58'2 4.4
2018-Apr-19 10:30N 44°20' E 008°59'1 2.6
2018-Apr-19 10:00N 44°19' E 008°58'5 9.1
2018-Apr-19 09:30N 44°15' E 008°55'4 7.9
2018-Apr-19 09:00N 44°11' E 008°53'0 0.4
2018-Apr-19 08:30N 44°12' E 008°53'0 0.7
2018-Apr-19 08:00N 44°12' E 008°53'0 0.7
2018-Apr-19 07:31N 44°12' E 008°53'0 0.7
2018-Apr-19 07:01N 44°12' E 008°53'0 0.7
2018-Apr-19 06:29N 44°13' E 008°53'0 0.5
2018-Apr-19 06:01N 44°13' E 008°54'2 4.0
2018-Apr-19 05:31N 44°11' E 008°52'2 1.9
2018-Apr-19 04:34N 44°10' E 008°50'1 1.4
2018-Apr-19 04:12N 44°10' E 008°51'0 1.4
2018-Apr-19 03:58N 44°11' E 008°51'1 1.5
2018-Apr-19 03:31N 44°11' E 008°52'1 1.4
2018-Apr-19 02:52N 44°12' E 008°52'1 1.4
2018-Apr-19 02:29N 44°12' E 008°53'0 0.9
2018-Apr-19 01:58N 44°12' E 008°53'0 0.6
2018-Apr-19 01:27N 44°13' E 008°54'0 0.8
2018-Apr-19 01:00N 44°13' E 008°54'0 0.9
2018-Apr-19 00:31N 44°13' E 008°55'0 0.8
2018-Apr-19 00:00N 44°13' E 008°55'0 0.9
2018-Apr-18 23:30N 44°14' E 008°56'0 0.8
2018-Apr-18 23:00N 44°14' E 008°56'0 0.6
2018-Apr-18 22:30N 44°14' E 008°56'0 0.2
2018-Apr-18 22:00N 44°14' E 008°56'1 1.1
2018-Apr-18 21:31N 44°14' E 008°56'1 1.1
2018-Apr-18 21:00N 44°14' E 008°55'1 1.2
2018-Apr-18 20:30N 44°13' E 008°55'1 1.5
2018-Apr-18 20:01N 44°13' E 008°56'3 6.1
2018-Apr-18 19:31N 44°10' E 008°54'713.8
2018-Apr-18 19:00N 44°03' E 008°52'59313.0
2018-Apr-16 21:33N 37°23' W 000°45'111.4
2018-Apr-16 21:30N 37°23' W 000°46'23212.5
2018-Apr-16 02:59N 35°59' W 005°16'816.5
2018-Apr-16 02:31N 35°58' W 005°25'  
Track history (hours):
 
Tides and Currents Weather Stations Pressure Air Temp Water Temp Dewpoint Dewpoint Depression Visibility Wind Speed Wind Dir Waves Ship Positions

Jona

Last reported at 2018-Apr-21 16:59 UTC. Time now 2018-Apr-21 17:10 UTC.
Position N 41°18' E 002°11'.

Length 190 m; draft 9.5 m.

Type: Ship (hazmat cat A). MMSI: 255805610.

Date/timePositionNaut miles runAvg speedWind from/ knotsBaromVisibWave heightAir tempDewpointWater temp
2018-Apr-21 16:59N 41°18' E 002°11'0 0.0
2018-Apr-21 16:26N 41°18' E 002°11'0 0.0
2018-Apr-21 14:28N 41°18' E 002°11'0 0.0
2018-Apr-21 13:55N 41°18' E 002°11'0 0.1
2018-Apr-21 13:13N 41°18' E 002°11'0 1.5
2018-Apr-21 13:01N 41°18' E 002°11'0 1.0
2018-Apr-21 12:30N 41°19' E 002°12'5 9.5
2018-Apr-21 12:00N 41°20' E 002°18'25113.4
2018-Apr-20 17:18N 43°07' E 007°24'6112.9
2018-Apr-20 12:35N 43°44' E 008°31'213.3
2018-Apr-20 12:24N 43°46' E 008°34'513.4
2018-Apr-20 12:00N 43°50' E 008°39'713.3
2018-Apr-20 11:30N 43°55' E 008°45'713.3
2018-Apr-20 11:00N 43°59' E 008°51'813.4
2018-Apr-20 10:27N 44°07' E 008°53'613.4
2018-Apr-20 10:00N 44°13' E 008°55'813.9
2018-Apr-20 09:28N 44°20' E 008°58'4 8.6
2018-Apr-20 09:00N 44°24' E 008°56'1 2.3
2018-Apr-20 08:30N 44°24' E 008°55'0 0.0
2018-Apr-20 08:00N 44°24' E 008°55'0 0.0
2018-Apr-20 07:27N 44°24' E 008°55'0 0.0
2018-Apr-20 07:00N 44°24' E 008°55'0 0.0
2018-Apr-20 06:26N 44°24' E 008°55'0 0.0
2018-Apr-20 05:56N 44°24' E 008°55'0 0.0
2018-Apr-20 05:29N 44°24' E 008°55'0 0.0
2018-Apr-20 04:50N 44°24' E 008°55'0 0.0
2018-Apr-20 04:29N 44°24' E 008°55'0 0.0
2018-Apr-20 03:55N 44°24' E 008°55'0 0.0
2018-Apr-20 03:25N 44°24' E 008°55'0 0.0
2018-Apr-20 02:58N 44°24' E 008°55'0 0.0
2018-Apr-20 02:28N 44°24' E 008°55'0 0.0
2018-Apr-20 02:00N 44°24' E 008°55'0 0.0
2018-Apr-19 22:35N 44°24' E 008°55'0 0.0
2018-Apr-19 22:29N 44°24' E 008°55'0 0.0
2018-Apr-19 21:59N 44°24' E 008°55'0 0.0
2018-Apr-19 21:29N 44°24' E 008°55'0 0.0
2018-Apr-19 20:58N 44°24' E 008°55'0 0.0
2018-Apr-19 20:28N 44°24' E 008°55'0 0.0
2018-Apr-19 19:58N 44°24' E 008°55'0 0.0
2018-Apr-19 19:28N 44°24' E 008°55'0 0.0
2018-Apr-19 18:57N 44°24' E 008°55'0 0.0
2018-Apr-19 18:21N 44°24' E 008°55'0 0.0
2018-Apr-19 18:00N 44°24' E 008°55'0 0.0
2018-Apr-19 17:27N 44°24' E 008°55'0 0.0
2018-Apr-19 16:57N 44°24' E 008°55'0 0.0
2018-Apr-19 16:26N 44°24' E 008°55'0 0.0
2018-Apr-19 15:59N 44°24' E 008°55'0 0.0
2018-Apr-19 15:29N 44°24' E 008°55'0 0.0
2018-Apr-19 14:59N 44°24' E 008°55'0 0.0
2018-Apr-19 14:28N 44°24' E 008°55'0 0.0
2018-Apr-19 13:55N 44°24' E 008°55'0 0.0
2018-Apr-19 13:25N 44°24' E 008°55'0 0.0
2018-Apr-19 12:58N 44°24' E 008°55'0 0.0
2018-Apr-19 12:28N 44°24' E 008°55'0 0.0
2018-Apr-19 11:55N 44°24' E 008°55'1 2.0
2018-Apr-19 11:31N 44°24' E 008°56'2 4.6
2018-Apr-19 11:01N 44°22' E 008°58'2 4.4
2018-Apr-19 10:30N 44°20' E 008°59'1 2.6
2018-Apr-19 10:00N 44°19' E 008°58'5 9.1
2018-Apr-19 09:30N 44°15' E 008°55'4 7.9
2018-Apr-19 09:00N 44°11' E 008°53'0 0.4
2018-Apr-19 08:30N 44°12' E 008°53'0 0.7
2018-Apr-19 08:00N 44°12' E 008°53'0 0.7
2018-Apr-19 07:31N 44°12' E 008°53'0 0.7
2018-Apr-19 07:01N 44°12' E 008°53'0 0.7
2018-Apr-19 06:29N 44°13' E 008°53'0 0.5
2018-Apr-19 06:01N 44°13' E 008°54'2 4.0
2018-Apr-19 05:31N 44°11' E 008°52'2 1.9
2018-Apr-19 04:34N 44°10' E 008°50'1 1.4
2018-Apr-19 04:12N 44°10' E 008°51'0 1.4
2018-Apr-19 03:58N 44°11' E 008°51'1 1.5
2018-Apr-19 03:31N 44°11' E 008°52'1 1.4
2018-Apr-19 02:52N 44°12' E 008°52'1 1.4
2018-Apr-19 02:29N 44°12' E 008°53'0 0.9
2018-Apr-19 01:58N 44°12' E 008°53'0 0.6
2018-Apr-19 01:27N 44°13' E 008°54'0 0.8
2018-Apr-19 01:00N 44°13' E 008°54'0 0.9
2018-Apr-19 00:31N 44°13' E 008°55'0 0.8
2018-Apr-19 00:00N 44°13' E 008°55'0 0.9
2018-Apr-18 23:30N 44°14' E 008°56'0 0.8
2018-Apr-18 23:00N 44°14' E 008°56'0 0.6
2018-Apr-18 22:30N 44°14' E 008°56'0 0.2
2018-Apr-18 22:00N 44°14' E 008°56'1 1.1
2018-Apr-18 21:31N 44°14' E 008°56'1 1.1
2018-Apr-18 21:00N 44°14' E 008°55'1 1.2
2018-Apr-18 20:30N 44°13' E 008°55'1 1.5
2018-Apr-18 20:01N 44°13' E 008°56'3 6.1
2018-Apr-18 19:31N 44°10' E 008°54'713.8
2018-Apr-18 19:00N 44°03' E 008°52'59313.0
2018-Apr-16 21:33N 37°23' W 000°45'111.4
2018-Apr-16 21:30N 37°23' W 000°46'23212.5
2018-Apr-16 02:59N 35°59' W 005°16'816.5
2018-Apr-16 02:31N 35°58' W 005°25'  

Dump ship's entire track history